Observations for CARDIFF-WALES ARPT, United Kingdom (EGFF)

EGFF 180520Z AUTO 27013KT 9999 OVC010 14/12 Q1018   
EGFF 180450Z AUTO 27014KT 9999 OVC010 14/12 Q1018   
EGFF 180420Z AUTO 27016KT 9999 OVC011 13/12 Q1018   
EGFF 180350Z AUTO 27012KT 9999 OVC011 14/12 Q1017   
EGFF 180320Z AUTO 27014KT 9999 OVC012 14/12 Q1017   
EGFF 180250Z AUTO 27014KT 9999 OVC011 14/13 Q1017   
EGFF 180220Z AUTO 27013KT 9999 BKN010 OVC016 14/13 Q1017
EGFF 180150Z AUTO 27013KT 9999 OVC011 14/13 Q1017   
EGFF 180120Z AUTO 27014KT 9999 BKN004 BKN009 OVC016 13/13 Q1017 
EGFF 180050Z AUTO 27013KT 6000 -RA BKN003 OVC006 14/13 Q1017 RERA REDZ  
EGFF 180020Z AUTO 26012KT 9000 -RA BKN006 BKN009 OVC016 14/13 Q1017 
EGFF 172350Z AUTO 26012KT 9999 -RA OVC009 14/13 Q1017   
EGFF 172320Z AUTO 27012KT 9999 OVC011 14/13 Q1017   
EGFF 172250Z AUTO 27013G23KT 9999 -RA SCT005 BKN009 OVC013 14/13 Q1017  
EGFF 172220Z AUTO 27013KT 9999 -RA BKN004 OVC008 14/14 Q1017 RERA REDZ  
EGFF 172150Z AUTO 26012KT 9999 FEW005 BKN008 OVC013 14/14 Q1017 
EGFF 172120Z AUTO 27011KT 9999 BKN001 OVC014 15/14 Q1016
EGFF 172050Z AUTO 27011KT 4600 -DZ OVC001 15/15 Q1016 REDZ  
EGFF 172020Z AUTO 26011KT 3200 -DZ OVC001 15/15 Q1016   
EGFF 171950Z 27011KT 4000 -DZ OVC002 15/15 Q1016
EGFF 171920Z 27011KT 9999 8000NW -RA BKN003 BKN018 15/15 Q1016  
EGFF 171850Z 26013KT 4500 BR BKN003 15/15 Q1016 RERA REDZ   
EGFF 171820Z 26013KT 3600 RADZ BKN002 BKN003 15/15 Q1016
EGFF 171750Z 27012KT 9000 3800NW BR BKN003 OVC007 15/15 Q1015   
EGFF 171720Z 27014KT 5000 -RA BKN003 OVC011 16/15 Q1015 
EGFF 171650Z AUTO 27015KT 9999 BKN005 OVC009 16/15 Q1015
EGFF 171620Z AUTO 27010KT 9999 BKN006 OVC011 16/15 Q1015
EGFF 171550Z AUTO 27010KT 9999 SCT007 OVC014 16/15 Q1015
EGFF 171520Z 27012KT 9999 BKN007 BKN011 OVC018 16/15 Q1015  
EGFF 171450Z 26007KT 9999 BKN008 OVC015 16/15 Q1015 RERA
EGFF 171420Z AUTO 24007KT 9999 BKN014 OVC018 16/14 Q1015
EGFF 171350Z AUTO 21006KT 180V250 9999 OVC016 16/14 Q1015   
EGFF 171320Z AUTO 20008KT 9999 OVC017 16/14 Q1015   
EGFF 171250Z AUTO 18006KT 150V220 9999 OVC016 15/14 Q1015   
EGFF 171220Z 18006KT 8000 FEW006 BKN010 OVC017 14/13 Q1015  
EGFF 171150Z 15007KT 4500 -RA SCT004 BKN008 OVC012 14/13 Q1015  
EGFF 171120Z AUTO 18007KT 3300 HZ SCT006 BKN010 OVC018 14/13 Q1016  
EGFF 171050Z AUTO 21007KT 170V240 9999 OVC016 14/12 Q1016   
EGFF 171020Z AUTO 23006KT 190V250 9999 OVC016 14/12 Q1016   
EGFF 170950Z AUTO 23005KT 9999 -RA SCT014 BKN018 OVC023 14/12 Q1016 
EGFF 170920Z AUTO 24007KT 210V270 9999 BKN022 OVC027 14/11 Q1016
EGFF 170850Z AUTO 24007KT 9999 OVC035 15/11 Q1016   
EGFF 170820Z AUTO 24009KT 9999 SCT017 BKN029 15/11 Q1016
EGFF 170750Z AUTO 25009KT 9999 BKN016 BKN021 14/11 Q1016
EGFF 170720Z AUTO 26010KT 9999 BKN013 BKN021 OVC040 14/11 Q1016 
EGFF 170650Z 26011KT 230V290 9999 SCT014 BKN018 BKN027 14/11 Q1016  
EGFF 170620Z 27009KT 230V290 9999 SCT016 BKN020 BKN026 14/11 Q1016  
EGFF 170550Z 27009KT 9999 SCT016 BKN032 13/11 Q1015 
EGFF 170520Z AUTO 27008KT 9999 BKN017 BKN029 13/11 Q1015
EGFF 170450Z AUTO 27010KT 9999 SCT017 BKN024 13/10 Q1015